Allenport, PA

1:18 PM EST on November 27, 2014 (GMT -0500)
Belle Vernon | Change Station
CLOSE
Current Station
Personal Weather Station
Location: Belle Vernon, PA
Elevation: 996 ft
Nearby Weather Stations

Elev 996 ft 40.12 °N, 79.85 °W | Updated 3 seconds ago

Overcast
Overcast
38.8 °F
Feels Like 39 °F
N
0.0
Wind Variable Wind from WNW
Gusts 0.0 mph

Today
High -- | Low -- °F
--% Chance of Precip.
Yesterday
High -- | Low -- °F
Precip. -- in
7:18 AM 4:55 PM
Waxing Crescent, 31% visible
Pressure 30.05 in
Visibility 1.8 miles
Clouds Mostly Cloudy 1600 ft
Mostly Cloudy 2500 ft
Overcast 3200 ft
Windchill 39 °F
Dew Point 31 °F
Humidity 73%
Rainfall 0.06 in
Snow Depth Not available.
UV 1 out of 12
Pollen .10 out of 12
Air Quality Not available.
Flu Activity Not available.
SPECI KAGC 271812Z 32006KT 1 3/4SM -SN BKN016 BKN025 OVC032 01/M03 A3005 RMK AO2 SNB02 P0000 T00061028

More Conditions Fewer Conditions

Pressure 30.05 in
Visibility 1.8 miles
Clouds Mostly Cloudy 1600 ft
Mostly Cloudy 2500 ft
Overcast 3200 ft
Windchill 39 °F
Dew Point 31 °F
Humidity 73%
Rainfall 0.06 in
Snow Depth Not available.
UV 1 out of 12
Pollen .10 out of 12
Air Quality Not available.
Flu Activity Not available.
SPECI KAGC 271812Z 32006KT 1 3/4SM -SN BKN016 BKN025 OVC032 01/M03 A3005 RMK AO2 SNB02 P0000 T00061028

More Conditions Fewer Conditions

10-Day Weather Forecast

Almanac

Astronomy

Nov. 27, 2014 Rise Set
Actual Time
Civil Twilight
Nautical Twilight
Astronomical Twilight
Moon
Length of Visible Light
Length of Day
Tomorrow will be .
, % of the Moon is Illuminated

Today's Extremes

State Highs State Lows

Community

WunderPhotos

Upload Photos

1,774,076 photos uploaded!

WunderBlogs® & News

Nearby

Air Quality

  Air Quality AQ Index Pollutant
Not available.

Snow Depth

Station Depth Elevation

Earthquake Activity

City Distance Mag. Time & Date
Minimum magnitude displayed is 2.5.

Coastal Water Temperatures

Place Temperature

Nearby Weather Stations